sensor_id;sensor_type;location;lat;lon;timestamp;pressure;altitude;pressure_sealevel;temperature;humidity
38716;BME280;24833;49.324;8.694;2023-08-21T00:02:15;100223.88;;;25.67;59.18
38716;BME280;24833;49.324;8.694;2023-08-21T00:04:42;100218.47;;;25.62;59.13
38716;BME280;24833;49.324;8.694;2023-08-21T00:07:09;100222.88;;;25.58;59.71
38716;BME280;24833;49.324;8.694;2023-08-21T00:09:37;100218.22;;;25.58;59.10
38716;BME280;24833;49.324;8.694;2023-08-21T00:12:05;100218.22;;;25.58;59.01
38716;BME280;24833;49.324;8.694;2023-08-21T00:14:32;100214.66;;;25.58;59.43
38716;BME280;24833;49.324;8.694;2023-08-21T00:16:59;100217.09;;;25.59;58.91
38716;BME280;24833;49.324;8.694;2023-08-21T00:19:26;100213.56;;;25.59;59.35
38716;BME280;24833;49.324;8.694;2023-08-21T00:21:53;100206.44;;;25.58;59.74
38716;BME280;24833;49.324;8.694;2023-08-21T00:24:20;100217.09;;;25.59;59.09
38716;BME280;24833;49.324;8.694;2023-08-21T00:26:47;100207.78;;;25.60;58.45
38716;BME280;24833;49.324;8.694;2023-08-21T00:29:14;100203.94;;;25.61;58.54
38716;BME280;24833;49.324;8.694;2023-08-21T00:31:41;100202.88;;;25.62;58.35
38716;BME280;24833;49.324;8.694;2023-08-21T00:34:08;100205.59;;;25.62;58.46
38716;BME280;24833;49.324;8.694;2023-08-21T00:36:36;100208.06;;;25.64;58.52
38716;BME280;24833;49.324;8.694;2023-08-21T00:39:03;100209.97;;;25.63;58.59
38716;BME280;24833;49.324;8.694;2023-08-21T00:41:30;100210.53;;;25.60;59.00
38716;BME280;24833;49.324;8.694;2023-08-21T00:43:59;100204.00;;;25.56;59.04
38716;BME280;24833;49.324;8.694;2023-08-21T00:46:26;100216.31;;;25.53;58.97
38716;BME280;24833;49.324;8.694;2023-08-21T00:48:53;100205.13;;;25.50;58.86
38716;BME280;24833;49.324;8.694;2023-08-21T00:51:20;100205.69;;;25.47;58.51
38716;BME280;24833;49.324;8.694;2023-08-21T00:53:47;100205.69;;;25.47;58.70
38716;BME280;24833;49.324;8.694;2023-08-21T00:56:15;100211.72;;;25.49;58.51
38716;BME280;24833;49.324;8.694;2023-08-21T00:58:42;100203.50;;;25.49;58.73
38716;BME280;24833;49.324;8.694;2023-08-21T01:01:12;100207.34;;;25.48;58.58
38716;BME280;24833;49.324;8.694;2023-08-21T01:03:39;100206.50;;;25.47;58.57
38716;BME280;24833;49.324;8.694;2023-08-21T01:06:06;100197.78;;;25.45;58.39
38716;BME280;24833;49.324;8.694;2023-08-21T01:09:00;100205.75;;;25.42;57.85
38716;BME280;24833;49.324;8.694;2023-08-21T01:14:51;100217.53;;;25.37;57.61
38716;BME280;24833;49.324;8.694;2023-08-21T01:17:19;100213.44;;;25.35;58.20
38716;BME280;24833;49.324;8.694;2023-08-21T01:19:49;100216.72;;;25.32;57.86
38716;BME280;24833;49.324;8.694;2023-08-21T01:22:17;100220.88;;;25.29;58.10
38716;BME280;24833;49.324;8.694;2023-08-21T01:24:44;100227.44;;;25.28;58.10
38716;BME280;24833;49.324;8.694;2023-08-21T01:27:12;100221.41;;;25.26;58.57
38716;BME280;24833;49.324;8.694;2023-08-21T01:29:40;100226.63;;;25.22;58.36
38716;BME280;24833;49.324;8.694;2023-08-21T01:32:24;100217.66;;;25.17;58.73
38716;BME280;24833;49.324;8.694;2023-08-21T01:34:55;100221.22;;;25.12;58.57
38716;BME280;24833;49.324;8.694;2023-08-21T01:37:24;100220.97;;;25.09;58.74
38716;BME280;24833;49.324;8.694;2023-08-21T01:39:53;100226.16;;;25.05;58.69
38716;BME280;24833;49.324;8.694;2023-08-21T01:42:20;100225.06;;;25.01;59.29
38716;BME280;24833;49.324;8.694;2023-08-21T01:44:47;100222.06;;;24.97;59.08
38716;BME280;24833;49.324;8.694;2023-08-21T01:47:14;100226.19;;;24.95;59.33
38716;BME280;24833;49.324;8.694;2023-08-21T01:49:42;100222.09;;;24.92;59.29
38716;BME280;24833;49.324;8.694;2023-08-21T01:52:09;100221.84;;;24.84;61.82
38716;BME280;24833;49.324;8.694;2023-08-21T01:54:36;100225.13;;;24.81;60.53
38716;BME280;24833;49.324;8.694;2023-08-21T01:57:03;100232.78;;;24.79;59.91
38716;BME280;24833;49.324;8.694;2023-08-21T01:59:30;100221.34;;;24.77;60.72
38716;BME280;24833;49.324;8.694;2023-08-21T02:01:57;100229.00;;;24.75;60.66
38716;BME280;24833;49.324;8.694;2023-08-21T02:04:25;100225.19;;;24.70;61.91
38716;BME280;24833;49.324;8.694;2023-08-21T02:06:52;100228.44;;;24.67;61.06
38716;BME280;24833;49.324;8.694;2023-08-21T02:09:21;100230.94;;;24.64;61.55
38716;BME280;24833;49.324;8.694;2023-08-21T02:11:48;100227.38;;;24.58;63.35
38716;BME280;24833;49.324;8.694;2023-08-21T02:14:15;100223.31;;;24.45;65.59
38716;BME280;24833;49.324;8.694;2023-08-21T02:16:42;100230.44;;;24.36;65.14
38716;BME280;24833;49.324;8.694;2023-08-21T02:19:09;100228.00;;;24.35;63.37
38716;BME280;24833;49.324;8.694;2023-08-21T02:21:36;100237.25;;;24.34;62.69
38716;BME280;24833;49.324;8.694;2023-08-21T02:24:04;100241.06;;;24.33;61.77
38716;BME280;24833;49.324;8.694;2023-08-21T02:26:31;100237.78;;;24.31;62.73
38716;BME280;24833;49.324;8.694;2023-08-21T02:28:58;100237.25;;;24.29;64.26
38716;BME280;24833;49.324;8.694;2023-08-21T02:31:25;100239.41;;;24.27;62.71
38716;BME280;24833;49.324;8.694;2023-08-21T02:33:52;100246.78;;;24.26;62.60
38716;BME280;24833;49.324;8.694;2023-08-21T02:36:19;100234.53;;;24.24;62.33
38716;BME280;24833;49.324;8.694;2023-08-21T02:38:46;100246.53;;;24.23;61.77
38716;BME280;24833;49.324;8.694;2023-08-21T02:41:13;100242.19;;;24.22;62.29
38716;BME280;24833;49.324;8.694;2023-08-21T02:43:44;100242.44;;;24.20;62.74
38716;BME280;24833;49.324;8.694;2023-08-21T02:46:11;100231.78;;;24.18;62.39
38716;BME280;24833;49.324;8.694;2023-08-21T02:48:38;100239.44;;;24.16;62.70
38716;BME280;24833;49.324;8.694;2023-08-21T02:51:05;100240.53;;;24.15;62.84
38716;BME280;24833;49.324;8.694;2023-08-21T02:53:32;100240.78;;;24.14;62.71
38716;BME280;24833;49.324;8.694;2023-08-21T02:55:59;100237.81;;;24.10;64.42
38716;BME280;24833;49.324;8.694;2023-08-21T02:58:26;100243.81;;;24.02;66.12
38716;BME280;24833;49.324;8.694;2023-08-21T03:00:53;100246.25;;;23.99;66.51
38716;BME280;24833;49.324;8.694;2023-08-21T03:03:20;100245.44;;;23.98;63.49
38716;BME280;24833;49.324;8.694;2023-08-21T03:05:47;100250.91;;;23.98;63.46
38716;BME280;24833;49.324;8.694;2023-08-21T03:08:15;100238.34;;;23.97;62.90
38716;BME280;24833;49.324;8.694;2023-08-21T03:10:43;100243.81;;;23.97;63.21
38716;BME280;24833;49.324;8.694;2023-08-21T03:13:10;100241.38;;;23.96;62.84
38716;BME280;24833;49.324;8.694;2023-08-21T03:15:37;100238.63;;;23.96;63.79
38716;BME280;24833;49.324;8.694;2023-08-21T03:18:04;100232.59;;;23.93;64.74
38716;BME280;24833;49.324;8.694;2023-08-21T03:20:32;100233.97;;;23.91;65.59
38716;BME280;24833;49.324;8.694;2023-08-21T03:23:00;100223.34;;;23.84;66.92
38716;BME280;24833;49.324;8.694;2023-08-21T03:25:28;100231.78;;;23.78;67.26
38716;BME280;24833;49.324;8.694;2023-08-21T03:27:55;100231.78;;;23.73;66.28
38716;BME280;24833;49.324;8.694;2023-08-21T03:30:22;100222.78;;;23.72;66.02
38716;BME280;24833;49.324;8.694;2023-08-21T03:32:50;100229.59;;;23.70;65.33
38716;BME280;24833;49.324;8.694;2023-08-21T03:35:17;100232.34;;;23.70;64.86
38716;BME280;24833;49.324;8.694;2023-08-21T03:37:45;100225.25;;;23.69;64.60
38716;BME280;24833;49.324;8.694;2023-08-21T03:40:14;100226.34;;;23.68;65.12
38716;BME280;24833;49.324;8.694;2023-08-21T03:42:41;100227.41;;;23.67;64.90
38716;BME280;24833;49.324;8.694;2023-08-21T03:45:10;100224.69;;;23.67;66.33
38716;BME280;24833;49.324;8.694;2023-08-21T03:47:38;100230.41;;;23.65;65.78
38716;BME280;24833;49.324;8.694;2023-08-21T03:50:12;100227.97;;;23.63;64.68
38716;BME280;24833;49.324;8.694;2023-08-21T03:52:40;100237.25;;;23.62;65.16
38716;BME280;24833;49.324;8.694;2023-08-21T03:55:08;100234.78;;;23.61;65.59
38716;BME280;24833;49.324;8.694;2023-08-21T03:57:35;100235.28;;;23.58;65.62
38716;BME280;24833;49.324;8.694;2023-08-21T04:00:04;100236.66;;;23.55;65.31
38716;BME280;24833;49.324;8.694;2023-08-21T04:02:41;100231.72;;;23.52;64.34
38716;BME280;24833;49.324;8.694;2023-08-21T04:05:09;100245.34;;;23.52;64.18
38716;BME280;24833;49.324;8.694;2023-08-21T04:07:38;100244.25;;;23.53;64.03
38716;BME280;24833;49.324;8.694;2023-08-21T04:10:06;100245.94;;;23.54;63.84
38716;BME280;24833;49.324;8.694;2023-08-21T04:12:33;100253.00;;;23.55;63.91
38716;BME280;24833;49.324;8.694;2023-08-21T04:15:00;100250.00;;;23.57;63.84
38716;BME280;24833;49.324;8.694;2023-08-21T04:17:29;100259.00;;;23.57;63.97
38716;BME280;24833;49.324;8.694;2023-08-21T04:19:56;100259.28;;;23.56;63.72
38716;BME280;24833;49.324;8.694;2023-08-21T04:22:23;100243.75;;;23.56;63.35
38716;BME280;24833;49.324;8.694;2023-08-21T04:24:50;100251.91;;;23.56;63.27
38716;BME280;24833;49.324;8.694;2023-08-21T04:27:17;100251.91;;;23.56;64.15
38716;BME280;24833;49.324;8.694;2023-08-21T04:29:44;100245.94;;;23.54;64.45
38716;BME280;24833;49.324;8.694;2023-08-21T04:32:11;100253.00;;;23.50;64.31
38716;BME280;24833;49.324;8.694;2023-08-21T04:34:40;100256.81;;;23.49;64.98
38716;BME280;24833;49.324;8.694;2023-08-21T04:37:07;100261.97;;;23.46;64.29
38716;BME280;24833;49.324;8.694;2023-08-21T04:39:35;100262.53;;;23.43;64.92
38716;BME280;24833;49.324;8.694;2023-08-21T04:42:03;100259.50;;;23.39;66.00
38716;BME280;24833;49.324;8.694;2023-08-21T04:44:30;100259.50;;;23.34;66.31
38716;BME280;24833;49.324;8.694;2023-08-21T04:46:57;100258.91;;;23.27;68.21
38716;BME280;24833;49.324;8.694;2023-08-21T04:49:45;100261.38;;;23.23;67.78
38716;BME280;24833;49.324;8.694;2023-08-21T04:52:12;100260.25;;;23.19;68.58
38716;BME280;24833;49.324;8.694;2023-08-21T04:54:39;100256.94;;;23.12;68.27
38716;BME280;24833;49.324;8.694;2023-08-21T04:57:06;100261.03;;;23.09;68.68
38716;BME280;24833;49.324;8.694;2023-08-21T04:59:35;100271.09;;;23.04;68.40
38716;BME280;24833;49.324;8.694;2023-08-21T05:02:02;100270.81;;;23.05;66.97
38716;BME280;24833;49.324;8.694;2023-08-21T05:04:30;100272.72;;;23.05;66.86
38716;BME280;24833;49.324;8.694;2023-08-21T05:06:57;100276.28;;;23.05;66.68
38716;BME280;24833;49.324;8.694;2023-08-21T05:09:24;100277.91;;;23.06;68.04
38716;BME280;24833;49.324;8.694;2023-08-21T05:11:51;100277.38;;;23.04;66.28
38716;BME280;24833;49.324;8.694;2023-08-21T05:14:18;100286.34;;;23.05;65.85
38716;BME280;24833;49.324;8.694;2023-08-21T05:16:46;100285.53;;;23.04;65.70
38716;BME280;24833;49.324;8.694;2023-08-21T05:19:13;100282.53;;;23.06;65.52
38716;BME280;24833;49.324;8.694;2023-08-21T05:21:40;100281.22;;;23.08;65.55
38716;BME280;24833;49.324;8.694;2023-08-21T05:24:07;100285.28;;;23.11;65.50
38716;BME280;24833;49.324;8.694;2023-08-21T05:26:38;100282.84;;;23.09;64.56
38716;BME280;24833;49.324;8.694;2023-08-21T05:29:05;100293.22;;;23.18;65.23
38716;BME280;24833;49.324;8.694;2023-08-21T05:31:32;100292.72;;;23.21;65.44
38716;BME280;24833;49.324;8.694;2023-08-21T05:34:00;100294.88;;;23.24;65.30
38716;BME280;24833;49.324;8.694;2023-08-21T05:36:27;100294.63;;;23.25;65.21
38716;BME280;24833;49.324;8.694;2023-08-21T05:38:57;100296.25;;;23.26;65.04
38716;BME280;24833;49.324;8.694;2023-08-21T05:41:26;100300.38;;;23.29;65.09
38716;BME280;24833;49.324;8.694;2023-08-21T05:43:53;100299.28;;;23.30;64.98
38716;BME280;24833;49.324;8.694;2023-08-21T05:46:23;100303.13;;;23.34;65.03
38716;BME280;24833;49.324;8.694;2023-08-21T05:48:50;100307.22;;;23.36;64.92
38716;BME280;24833;49.324;8.694;2023-08-21T05:51:17;100298.22;;;23.36;64.71
38716;BME280;24833;49.324;8.694;2023-08-21T05:53:44;100299.84;;;23.37;64.61
38716;BME280;24833;49.324;8.694;2023-08-21T05:56:12;100298.47;;;23.39;64.50
38716;BME280;24833;49.324;8.694;2023-08-21T05:58:39;100308.06;;;23.42;64.90
38716;BME280;24833;49.324;8.694;2023-08-21T06:01:07;100305.88;;;23.44;64.94
38716;BME280;24833;49.324;8.694;2023-08-21T06:03:34;100314.91;;;23.50;64.82
38716;BME280;24833;49.324;8.694;2023-08-21T06:06:10;100305.91;;;23.54;64.58
38716;BME280;24833;49.324;8.694;2023-08-21T06:08:37;100308.97;;;23.63;65.42
38716;BME280;24833;49.324;8.694;2023-08-21T06:11:04;100315.81;;;23.71;64.91
38716;BME280;24833;49.324;8.694;2023-08-21T06:13:32;100321.28;;;23.81;65.27
38716;BME280;24833;49.324;8.694;2023-08-21T06:15:59;100325.13;;;23.90;64.93
38716;BME280;24833;49.324;8.694;2023-08-21T06:18:27;100317.50;;;23.97;64.77
38716;BME280;24833;49.324;8.694;2023-08-21T06:20:55;100326.22;;;24.04;64.59
38716;BME280;24833;49.324;8.694;2023-08-21T06:23:22;100324.59;;;24.13;64.77
38716;BME280;24833;49.324;8.694;2023-08-21T06:25:50;100324.63;;;24.24;65.36
38716;BME280;24833;49.324;8.694;2023-08-21T06:28:19;100329.53;;;24.27;64.93
38716;BME280;24833;49.324;8.694;2023-08-21T06:30:47;100321.06;;;24.28;64.69
38716;BME280;24833;49.324;8.694;2023-08-21T06:33:14;100320.25;;;24.33;64.99
38716;BME280;24833;49.324;8.694;2023-08-21T06:35:41;100328.75;;;24.36;64.90
38716;BME280;24833;49.324;8.694;2023-08-21T06:38:09;100323.00;;;24.43;66.54
38716;BME280;24833;49.324;8.694;2023-08-21T06:40:36;100331.75;;;24.45;66.00
38716;BME280;24833;49.324;8.694;2023-08-21T06:43:03;100331.22;;;24.48;65.75
38716;BME280;24833;49.324;8.694;2023-08-21T06:45:33;100331.47;;;24.52;66.07
38716;BME280;24833;49.324;8.694;2023-08-21T06:48:03;100336.13;;;24.56;66.38
38716;BME280;24833;49.324;8.694;2023-08-21T06:50:31;100332.28;;;24.62;66.15
38716;BME280;24833;49.324;8.694;2023-08-21T06:52:58;100336.09;;;24.66;66.45
38716;BME280;24833;49.324;8.694;2023-08-21T06:55:25;100334.47;;;24.70;66.39
38716;BME280;24833;49.324;8.694;2023-08-21T06:57:52;100333.91;;;24.73;66.40
38716;BME280;24833;49.324;8.694;2023-08-21T07:00:19;100338.81;;;24.77;66.14
38716;BME280;24833;49.324;8.694;2023-08-21T07:02:46;100339.06;;;24.80;66.45
38716;BME280;24833;49.324;8.694;2023-08-21T07:05:13;100336.34;;;24.85;66.51
38716;BME280;24833;49.324;8.694;2023-08-21T07:07:40;100342.09;;;24.89;66.37
38716;BME280;24833;49.324;8.694;2023-08-21T07:10:08;100336.06;;;24.92;66.66
38716;BME280;24833;49.324;8.694;2023-08-21T07:12:35;100333.31;;;24.97;66.69
38716;BME280;24833;49.324;8.694;2023-08-21T07:15:03;100325.13;;;25.02;66.68
38716;BME280;24833;49.324;8.694;2023-08-21T07:17:30;100334.97;;;25.08;67.12
38716;BME280;24833;49.324;8.694;2023-08-21T07:19:57;100338.47;;;25.14;66.79
38716;BME280;24833;49.324;8.694;2023-08-21T07:22:24;100336.00;;;25.22;67.29
38716;BME280;24833;49.324;8.694;2023-08-21T07:24:51;100333.81;;;25.30;67.36
38716;BME280;24833;49.324;8.694;2023-08-21T07:27:18;100338.69;;;25.38;67.26
38716;BME280;24833;49.324;8.694;2023-08-21T07:29:45;100339.19;;;25.45;66.55
38716;BME280;24833;49.324;8.694;2023-08-21T07:32:12;100341.34;;;25.53;66.68
38716;BME280;24833;49.324;8.694;2023-08-21T07:34:40;100336.38;;;25.60;67.80
38716;BME280;24833;49.324;8.694;2023-08-21T07:37:08;100327.34;;;25.65;67.35
38716;BME280;24833;49.324;8.694;2023-08-21T07:39:36;100332.50;;;25.71;67.13
38716;BME280;24833;49.324;8.694;2023-08-21T07:42:03;100341.25;;;25.78;67.11
38716;BME280;24833;49.324;8.694;2023-08-21T07:44:30;100333.53;;;25.86;67.67
38716;BME280;24833;49.324;8.694;2023-08-21T07:46:57;100336.78;;;25.93;67.47
38716;BME280;24833;49.324;8.694;2023-08-21T07:49:24;100336.47;;;25.99;67.43
38716;BME280;24833;49.324;8.694;2023-08-21T07:51:51;100334.22;;;26.06;67.69
38716;BME280;24833;49.324;8.694;2023-08-21T07:54:18;100339.69;;;26.12;67.31
38716;BME280;24833;49.324;8.694;2023-08-21T07:56:45;100338.25;;;26.19;68.23
38716;BME280;24833;49.324;8.694;2023-08-21T07:59:12;100342.03;;;26.28;67.34
38716;BME280;24833;49.324;8.694;2023-08-21T08:01:39;100341.94;;;26.39;67.60
38716;BME280;24833;49.324;8.694;2023-08-21T08:04:07;100335.88;;;26.47;67.38
38716;BME280;24833;49.324;8.694;2023-08-21T08:06:35;100345.63;;;26.58;68.04
38716;BME280;24833;49.324;8.694;2023-08-21T08:09:02;100340.63;;;26.65;67.90
38716;BME280;24833;49.324;8.694;2023-08-21T08:11:30;100342.19;;;26.76;67.82
38716;BME280;24833;49.324;8.694;2023-08-21T08:13:57;100343.69;;;26.87;68.67
38716;BME280;24833;49.324;8.694;2023-08-21T08:16:24;100350.72;;;26.99;67.99
38716;BME280;24833;49.324;8.694;2023-08-21T08:18:51;100340.53;;;27.04;67.91
38716;BME280;24833;49.324;8.694;2023-08-21T08:21:18;100341.53;;;27.13;67.46
38716;BME280;24833;49.324;8.694;2023-08-21T08:23:45;100347.22;;;27.22;67.46
38716;BME280;24833;49.324;8.694;2023-08-21T08:26:13;100337.72;;;27.33;67.65
38716;BME280;24833;49.324;8.694;2023-08-21T08:28:40;100340.41;;;27.38;67.42
38716;BME280;24833;49.324;8.694;2023-08-21T08:31:07;100344.22;;;27.42;67.16
38716;BME280;24833;49.324;8.694;2023-08-21T08:33:40;100346.88;;;27.48;66.94
38716;BME280;24833;49.324;8.694;2023-08-21T08:36:07;100352.81;;;27.55;66.92
38716;BME280;24833;49.324;8.694;2023-08-21T08:38:34;100349.44;;;27.63;67.32
38716;BME280;24833;49.324;8.694;2023-08-21T08:41:02;100350.44;;;27.72;67.16
38716;BME280;24833;49.324;8.694;2023-08-21T08:43:35;100345.34;;;27.84;67.62
38716;BME280;24833;49.324;8.694;2023-08-21T08:46:08;100341.84;;;27.98;67.60
38716;BME280;24833;49.324;8.694;2023-08-21T08:48:37;100348.22;;;28.12;67.62
38716;BME280;24833;49.324;8.694;2023-08-21T08:51:04;100346.34;;;28.26;66.97
38716;BME280;24833;49.324;8.694;2023-08-21T08:53:32;100347.88;;;28.37;66.95
38716;BME280;24833;49.324;8.694;2023-08-21T08:55:59;100344.34;;;28.50;66.78
38716;BME280;24833;49.324;8.694;2023-08-21T08:58:27;100345.50;;;28.63;66.97
38716;BME280;24833;49.324;8.694;2023-08-21T09:00:54;100353.56;;;28.73;66.54
38716;BME280;24833;49.324;8.694;2023-08-21T09:03:21;100344.31;;;28.83;66.08
38716;BME280;24833;49.324;8.694;2023-08-21T09:05:48;100346.38;;;28.91;66.43
38716;BME280;24833;49.324;8.694;2023-08-21T09:08:16;100344.56;;;29.00;66.39
38716;BME280;24833;49.324;8.694;2023-08-21T09:10:43;100338.88;;;29.11;66.23
38716;BME280;24833;49.324;8.694;2023-08-21T09:15:42;100342.84;;;29.32;65.73
38716;BME280;24833;49.324;8.694;2023-08-21T09:18:11;100333.34;;;29.38;65.52
38716;BME280;24833;49.324;8.694;2023-08-21T09:20:38;100327.75;;;29.43;65.53
38716;BME280;24833;49.324;8.694;2023-08-21T09:23:05;100330.91;;;29.50;65.08
38716;BME280;24833;49.324;8.694;2023-08-21T09:25:40;100320.31;;;29.57;64.43
38716;BME280;24833;49.324;8.694;2023-08-21T09:28:08;100331.72;;;29.65;65.40
38716;BME280;24833;49.324;8.694;2023-08-21T09:30:50;100328.22;;;29.73;64.90
38716;BME280;24833;49.324;8.694;2023-08-21T09:33:19;100336.56;;;29.81;65.44
38716;BME280;24833;49.324;8.694;2023-08-21T09:35:48;100325.31;;;29.92;65.57
38716;BME280;24833;49.324;8.694;2023-08-21T09:38:15;100320.38;;;30.02;64.96
38716;BME280;24833;49.324;8.694;2023-08-21T09:40:44;100311.41;;;30.10;64.86
38716;BME280;24833;49.324;8.694;2023-08-21T09:43:17;100317.78;;;30.20;64.73
38716;BME280;24833;49.324;8.694;2023-08-21T09:45:51;100328.06;;;30.28;64.50
38716;BME280;24833;49.324;8.694;2023-08-21T09:48:24;100320.00;;;30.31;62.96
38716;BME280;24833;49.324;8.694;2023-08-21T09:50:54;100317.72;;;30.33;63.57
38716;BME280;24833;49.324;8.694;2023-08-21T09:53:22;100314.66;;;30.35;64.23
38716;BME280;24833;49.324;8.694;2023-08-21T09:56:08;100321.66;;;30.41;64.49
38716;BME280;24833;49.324;8.694;2023-08-21T09:58:36;100318.13;;;30.49;64.89
38716;BME280;24833;49.324;8.694;2023-08-21T10:01:08;100308.81;;;30.59;64.72
38716;BME280;24833;49.324;8.694;2023-08-21T10:03:41;100312.72;;;30.66;64.63
38716;BME280;24833;49.324;8.694;2023-08-21T10:06:09;100307.78;;;30.77;63.74
38716;BME280;24833;49.324;8.694;2023-08-21T10:08:39;100308.97;;;30.85;64.36
38716;BME280;24833;49.324;8.694;2023-08-21T10:11:08;100309.47;;;30.96;64.14
38716;BME280;24833;49.324;8.694;2023-08-21T10:13:38;100306.09;;;30.99;60.90
38716;BME280;24833;49.324;8.694;2023-08-21T10:16:06;100300.59;;;31.07;62.39
38716;BME280;24833;49.324;8.694;2023-08-21T10:18:37;100304.22;;;31.16;63.07
38716;BME280;24833;49.324;8.694;2023-08-21T10:21:16;100302.31;;;31.26;63.00
38716;BME280;24833;49.324;8.694;2023-08-21T10:23:49;100297.63;;;31.35;62.77
38716;BME280;24833;49.324;8.694;2023-08-21T10:26:20;100289.19;;;31.40;62.55
38716;BME280;24833;49.324;8.694;2023-08-21T10:29:02;100290.81;;;31.50;63.16
38716;BME280;24833;49.324;8.694;2023-08-21T10:31:40;100284.19;;;31.59;62.78
38716;BME280;24833;49.324;8.694;2023-08-21T10:34:12;100281.25;;;31.64;62.74
38716;BME280;24833;49.324;8.694;2023-08-21T10:39:23;100282.91;;;31.83;62.42
38716;BME280;24833;49.324;8.694;2023-08-21T10:41:59;100281.78;;;31.92;62.77
38716;BME280;24833;49.324;8.694;2023-08-21T10:49:59;100272.00;;;32.12;61.76
38716;BME280;24833;49.324;8.694;2023-08-21T10:52:31;100277.19;;;32.22;61.70
38716;BME280;24833;49.324;8.694;2023-08-21T10:55:02;100281.91;;;32.31;61.67
38716;BME280;24833;49.324;8.694;2023-08-21T10:57:33;100276.72;;;32.38;60.39
38716;BME280;24833;49.324;8.694;2023-08-21T11:00:05;100270.47;;;32.49;61.64
38716;BME280;24833;49.324;8.694;2023-08-21T11:02:38;100267.69;;;32.58;61.37
38716;BME280;24833;49.324;8.694;2023-08-21T11:05:06;100277.25;;;32.69;62.62
38716;BME280;24833;49.324;8.694;2023-08-21T11:10:07;100270.03;;;32.86;60.87
38716;BME280;24833;49.324;8.694;2023-08-21T11:12:56;100274.38;;;32.95;62.02
38716;BME280;24833;49.324;8.694;2023-08-21T11:15:26;100267.06;;;32.99;59.26
38716;BME280;24833;49.324;8.694;2023-08-21T11:17:59;100270.91;;;33.07;57.48
38716;BME280;24833;49.324;8.694;2023-08-21T11:20:35;100272.41;;;33.04;56.71
38716;BME280;24833;49.324;8.694;2023-08-21T11:23:05;100267.59;;;32.84;53.91
38716;BME280;24833;49.324;8.694;2023-08-21T11:25:40;100273.78;;;32.81;57.37
38716;BME280;24833;49.324;8.694;2023-08-21T11:28:08;100273.09;;;32.93;58.88
38716;BME280;24833;49.324;8.694;2023-08-21T11:30:36;100270.75;;;33.03;57.19
38716;BME280;24833;49.324;8.694;2023-08-21T11:33:12;100264.56;;;33.06;56.59
38716;BME280;24833;49.324;8.694;2023-08-21T11:35:41;100258.97;;;33.15;58.30
38716;BME280;24833;49.324;8.694;2023-08-21T11:38:22;100263.44;;;33.28;59.33
38716;BME280;24833;49.324;8.694;2023-08-21T11:41:00;100267.50;;;33.40;58.48
38716;BME280;24833;49.324;8.694;2023-08-21T11:43:38;100266.34;;;33.41;57.97
38716;BME280;24833;49.324;8.694;2023-08-21T11:46:10;100257.44;;;33.26;52.48
38716;BME280;24833;49.324;8.694;2023-08-21T11:48:38;100261.50;;;33.29;55.50
38716;BME280;24833;49.324;8.694;2023-08-21T11:51:07;100252.47;;;33.41;54.85
38716;BME280;24833;49.324;8.694;2023-08-21T11:53:40;100259.25;;;33.52;55.79
38716;BME280;24833;49.324;8.694;2023-08-21T11:56:16;100258.19;;;33.65;55.75
38716;BME280;24833;49.324;8.694;2023-08-21T11:58:45;100257.63;;;33.72;55.37
38716;BME280;24833;49.324;8.694;2023-08-21T12:01:18;100259.16;;;33.81;56.94
38716;BME280;24833;49.324;8.694;2023-08-21T12:03:45;100259.25;;;33.94;56.73
38716;BME280;24833;49.324;8.694;2023-08-21T12:06:12;100255.56;;;34.02;55.28
38716;BME280;24833;49.324;8.694;2023-08-21T12:08:39;100263.00;;;34.10;55.23
38716;BME280;24833;49.324;8.694;2023-08-21T12:11:07;100257.25;;;34.15;53.60
38716;BME280;24833;49.324;8.694;2023-08-21T12:13:35;100255.31;;;33.95;53.09
38716;BME280;24833;49.324;8.694;2023-08-21T12:16:03;100252.13;;;34.05;55.57
38716;BME280;24833;49.324;8.694;2023-08-21T12:18:30;100244.75;;;34.09;52.83
38716;BME280;24833;49.324;8.694;2023-08-21T12:20:57;100248.00;;;34.11;53.62
38716;BME280;24833;49.324;8.694;2023-08-21T12:23:24;100249.47;;;34.08;50.98
38716;BME280;24833;49.324;8.694;2023-08-21T12:25:51;100260.72;;;34.12;51.52
38716;BME280;24833;49.324;8.694;2023-08-21T12:28:18;100249.47;;;34.08;51.14
38716;BME280;24833;49.324;8.694;2023-08-21T12:30:45;100241.63;;;34.10;51.27
38716;BME280;24833;49.324;8.694;2023-08-21T12:33:13;100240.81;;;34.10;51.60
38716;BME280;24833;49.324;8.694;2023-08-21T12:35:49;100239.09;;;34.05;52.04
38716;BME280;24833;49.324;8.694;2023-08-21T12:38:16;100231.38;;;34.11;53.24
38716;BME280;24833;49.324;8.694;2023-08-21T12:40:44;100233.56;;;34.18;53.08
38716;BME280;24833;49.324;8.694;2023-08-21T12:43:11;100225.50;;;34.25;53.68
38716;BME280;24833;49.324;8.694;2023-08-21T12:45:38;100228.63;;;34.35;52.99
38716;BME280;24833;49.324;8.694;2023-08-21T12:48:05;100222.06;;;34.40;51.99
38716;BME280;24833;49.324;8.694;2023-08-21T12:50:33;100219.91;;;34.46;51.64
38716;BME280;24833;49.324;8.694;2023-08-21T12:53:00;100216.63;;;34.44;51.99
38716;BME280;24833;49.324;8.694;2023-08-21T12:55:28;100217.56;;;34.48;51.14
38716;BME280;24833;49.324;8.694;2023-08-21T12:57:56;100214.88;;;34.39;50.03
38716;BME280;24833;49.324;8.694;2023-08-21T13:00:24;100215.97;;;34.47;51.33
38716;BME280;24833;49.324;8.694;2023-08-21T13:02:51;100220.81;;;34.50;50.26
38716;BME280;24833;49.324;8.694;2023-08-21T13:05:18;100218.03;;;34.50;48.51
38716;BME280;24833;49.324;8.694;2023-08-21T13:07:45;100208.91;;;34.49;50.71
38716;BME280;24833;49.324;8.694;2023-08-21T13:10:13;100211.44;;;34.54;51.56
38716;BME280;24833;49.324;8.694;2023-08-21T13:12:40;100206.03;;;34.58;50.79
38716;BME280;24833;49.324;8.694;2023-08-21T13:15:08;100215.06;;;34.67;48.67